createdAt,value
2023-05-08T00:04:44.808Z,89.10
2023-05-08T00:09:47.487Z,88.80
2023-05-08T00:14:50.403Z,89.54
2023-05-08T00:19:52.058Z,89.18
2023-05-08T00:24:53.871Z,89.58
2023-05-08T00:29:57.102Z,89.40
2023-05-08T00:34:58.825Z,89.30
2023-05-08T00:40:00.535Z,89.17
2023-05-08T00:45:04.107Z,88.92
2023-05-08T00:50:06.494Z,89.23
2023-05-08T00:55:08.642Z,89.37
2023-05-08T01:00:13.712Z,89.11
2023-05-08T01:05:15.631Z,89.43
2023-05-08T01:10:17.197Z,89.89
2023-05-08T01:15:27.072Z,89.67
2023-05-08T01:20:36.856Z,89.87
2023-05-08T01:25:59.002Z,89.95
2023-05-08T01:31:08.764Z,90.01
2023-05-08T01:36:18.866Z,89.81
2023-05-08T01:41:25.685Z,90.12
2023-05-08T01:46:28.372Z,89.85
2023-05-08T01:51:37.647Z,89.99
2023-05-08T01:56:40.297Z,90.02
2023-05-08T02:01:42.706Z,90.32
2023-05-08T02:06:45.725Z,90.10
2023-05-08T02:11:48.588Z,89.93
2023-05-08T02:16:54.839Z,89.71
2023-05-08T02:21:58.499Z,90.09
2023-05-08T02:27:00.622Z,89.64
2023-05-08T02:32:02.470Z,89.52
2023-05-08T02:37:05.762Z,89.65
2023-05-08T02:48:53.098Z,89.68
2023-05-08T02:53:59.100Z,89.71
2023-05-08T02:59:10.568Z,89.81
2023-05-08T03:04:22.256Z,89.90
2023-05-08T03:09:28.380Z,89.74
2023-05-08T03:14:31.182Z,89.61
2023-05-08T03:19:35.813Z,89.13
2023-05-08T03:24:43.080Z,89.07
2023-05-08T03:29:45.706Z,89.18
2023-05-08T03:34:48.645Z,88.93
2023-05-08T03:39:52.520Z,88.76
2023-05-08T03:44:54.268Z,89.20
2023-05-08T03:49:57.415Z,89.26
2023-05-08T03:55:01.908Z,89.36
2023-05-08T04:00:06.971Z,89.50
2023-05-08T04:05:21.316Z,89.33
2023-05-08T04:10:31.883Z,89.68
2023-05-08T04:15:36.652Z,89.39
2023-05-08T04:39:36.186Z,88.60
2023-05-08T04:44:38.020Z,88.50
2023-05-08T04:49:41.395Z,88.48
2023-05-08T04:54:43.336Z,87.83
2023-05-08T04:59:45.465Z,87.80
2023-05-08T05:04:48.623Z,87.78
2023-05-08T05:09:50.894Z,88.18
2023-05-08T05:14:52.663Z,87.59
2023-05-08T05:19:55.872Z,88.48
2023-05-08T05:24:57.559Z,88.26
2023-05-08T05:30:00.232Z,88.52
2023-05-08T05:35:03.577Z,88.53
2023-05-08T05:40:06.838Z,88.28
2023-05-08T05:45:10.543Z,88.38
2023-05-08T05:50:15.220Z,88.47
2023-05-08T05:55:17.014Z,87.40
2023-05-08T06:00:19.837Z,87.63
2023-05-08T06:05:26.000Z,87.82
2023-05-08T06:10:27.956Z,86.62
2023-05-08T06:15:29.680Z,86.69
2023-05-08T06:20:32.915Z,86.18
2023-05-08T06:25:35.382Z,86.45
2023-05-08T06:30:37.038Z,86.57
2023-05-08T06:35:40.030Z,86.43
2023-05-08T06:40:42.643Z,85.67
2023-05-08T06:45:44.458Z,85.73
2023-05-08T06:50:47.452Z,84.39
2023-05-08T06:55:49.077Z,84.40
2023-05-08T07:00:50.805Z,85.02
2023-05-08T07:05:53.847Z,85.27
2023-05-08T07:10:55.481Z,84.50
2023-05-08T07:15:57.274Z,84.78
2023-05-08T07:21:00.360Z,84.14
2023-05-08T07:26:02.096Z,83.82
2023-05-08T07:31:06.165Z,83.53
2023-05-08T07:36:09.315Z,81.63
2023-05-08T07:41:11.057Z,82.75
2023-05-08T07:46:16.947Z,81.54
2023-05-08T07:51:20.073Z,81.83
2023-05-08T07:56:21.855Z,80.36
2023-05-08T08:01:23.633Z,78.35
2023-05-08T08:06:26.604Z,76.14
2023-05-08T08:11:28.269Z,77.80
2023-05-08T08:16:29.954Z,76.30
2023-05-08T08:21:33.682Z,73.01
2023-05-08T08:26:35.367Z,74.98
2023-05-08T08:31:37.218Z,74.76
2023-05-08T08:36:40.418Z,72.90
2023-05-08T08:41:42.272Z,75.40
2023-05-08T08:46:50.476Z,70.11
2023-05-08T08:51:57.397Z,71.86
2023-05-08T08:57:01.469Z,72.71
2023-05-08T09:02:07.690Z,72.21
2023-05-08T09:07:11.835Z,72.06
2023-05-08T09:12:13.667Z,72.83
2023-05-08T09:17:15.249Z,72.08
2023-05-08T09:22:18.297Z,72.05
2023-05-08T09:27:21.772Z,72.71
2023-05-08T09:32:23.661Z,72.26
2023-05-08T09:37:27.790Z,71.28
2023-05-08T09:42:37.673Z,72.71
2023-05-08T09:47:48.140Z,70.79
2023-05-08T09:52:51.210Z,70.90
2023-05-08T09:57:54.632Z,70.75
2023-05-08T10:02:58.395Z,70.31
2023-05-08T10:08:19.255Z,70.83
2023-05-08T10:13:21.065Z,69.99
2023-05-08T10:18:24.410Z,68.20
2023-05-08T10:23:27.539Z,69.51
2023-05-08T10:28:33.018Z,69.50
2023-05-08T10:33:35.208Z,68.43
2023-05-08T10:38:39.241Z,68.67
2023-05-08T10:43:42.052Z,70.20
2023-05-08T10:48:49.596Z,69.22
2023-05-08T10:53:55.851Z,67.77
2023-05-08T10:58:58.175Z,68.28
2023-05-08T11:04:00.023Z,67.86
2023-05-08T11:09:03.141Z,68.27
2023-05-08T11:14:13.603Z,67.21
2023-05-08T11:19:16.410Z,66.14
2023-05-08T11:24:19.483Z,67.44
2023-05-08T11:29:21.121Z,65.54
2023-05-08T11:34:44.900Z,66.13
2023-05-08T11:39:48.470Z,66.20
2023-05-08T11:44:50.644Z,65.84
2023-05-08T11:49:55.494Z,65.48
2023-05-08T11:55:01.724Z,65.90
2023-05-08T12:00:07.480Z,65.34
2023-05-08T12:05:11.498Z,65.09
2023-05-08T12:10:15.412Z,66.10
2023-05-08T12:15:17.968Z,66.00
2023-05-08T12:20:20.348Z,65.62
2023-05-08T12:25:26.005Z,63.50
2023-05-08T12:30:27.979Z,64.55
2023-05-08T12:35:29.870Z,62.54
2023-05-08T12:40:34.306Z,63.79
2023-05-08T12:45:37.623Z,64.09
2023-05-08T12:50:41.222Z,61.54
2023-05-08T12:55:52.861Z,61.75
2023-05-08T13:01:04.458Z,62.24
2023-05-08T13:06:06.569Z,62.83
2023-05-08T13:11:09.715Z,62.75
2023-05-08T13:16:11.593Z,62.42
2023-05-08T13:21:13.379Z,62.39
2023-05-08T13:26:16.379Z,61.71
2023-05-08T13:31:18.046Z,62.88
2023-05-08T13:41:22.783Z,61.74
2023-05-08T13:46:24.599Z,61.99
2023-05-08T13:51:26.244Z,61.92
2023-05-08T13:56:29.258Z,62.10
2023-05-08T14:01:30.976Z,63.02
2023-05-08T14:06:32.803Z,63.20
2023-05-08T14:11:35.893Z,62.78
2023-05-08T14:16:37.699Z,61.22
2023-05-08T14:21:39.513Z,62.02
2023-05-08T14:26:42.518Z,62.10
2023-05-08T14:31:44.715Z,62.88
2023-05-08T14:36:46.354Z,62.72
2023-05-08T14:42:10.390Z,62.73
2023-05-08T14:47:11.091Z,63.00
2023-05-08T14:52:12.955Z,63.59
2023-05-08T14:57:15.968Z,63.52
2023-05-08T15:02:17.771Z,64.36
2023-05-08T15:07:19.826Z,64.71
2023-05-08T15:12:23.407Z,63.96
2023-05-08T15:17:25.296Z,63.71
2023-05-08T15:22:27.859Z,64.08
2023-05-08T15:27:31.915Z,63.85
2023-05-08T15:32:33.575Z,63.01
2023-05-08T15:37:35.174Z,63.19
2023-05-08T15:42:38.334Z,62.82
2023-05-08T15:47:40.157Z,61.59
2023-05-08T15:52:41.859Z,61.05
2023-05-08T15:57:46.086Z,62.26
2023-05-08T16:02:47.975Z,62.36
2023-05-08T16:07:50.008Z,62.52
2023-05-08T16:12:53.197Z,63.07
2023-05-08T16:17:54.955Z,63.65
2023-05-08T16:22:56.942Z,64.00
2023-05-08T16:28:00.083Z,64.28
2023-05-08T16:33:02.199Z,64.15
2023-05-08T16:38:03.884Z,64.49
2023-05-08T16:43:06.923Z,64.12
2023-05-08T16:48:08.784Z,64.04
2023-05-08T16:53:10.552Z,64.26
2023-05-08T16:58:13.714Z,64.67
2023-05-08T17:03:15.659Z,64.67
2023-05-08T17:08:17.499Z,64.70
2023-05-08T17:13:20.536Z,65.12
2023-05-08T17:18:22.182Z,65.52
2023-05-08T17:23:23.892Z,65.59
2023-05-08T17:28:27.067Z,65.69
2023-05-08T17:33:29.052Z,66.07
2023-05-08T17:38:30.700Z,65.91
2023-05-08T17:43:33.749Z,66.17
2023-05-08T17:48:35.540Z,66.21
2023-05-08T17:53:37.261Z,66.23
2023-05-08T17:58:40.279Z,66.30
2023-05-08T18:03:42.089Z,66.51
2023-05-08T18:08:44.011Z,66.57
2023-05-08T18:13:49.117Z,66.94
2023-05-08T18:18:50.984Z,67.12
2023-05-08T18:23:52.892Z,67.25
2023-05-08T18:28:56.017Z,67.58
2023-05-08T18:33:57.755Z,67.73
2023-05-08T18:38:59.503Z,67.85
2023-05-08T18:44:02.601Z,67.81
2023-05-08T18:49:04.512Z,68.02
2023-05-08T18:54:06.223Z,68.10
2023-05-08T18:59:09.716Z,68.09
2023-05-08T19:04:11.639Z,68.47
2023-05-08T19:09:14.660Z,68.91
2023-05-08T19:14:17.895Z,69.20
2023-05-08T19:19:19.608Z,69.45
2023-05-08T19:24:21.352Z,69.80
2023-05-08T19:29:24.533Z,69.88
2023-05-08T19:34:26.486Z,70.08
2023-05-08T19:39:28.259Z,70.15
2023-05-08T19:44:31.364Z,70.54
2023-05-08T19:49:33.164Z,70.40
2023-05-08T19:54:34.988Z,70.77
2023-05-08T19:59:38.982Z,70.87
2023-05-08T20:09:45.700Z,71.33
2023-05-08T20:14:48.747Z,71.83
2023-05-08T20:19:50.440Z,71.92
2023-05-08T20:24:52.244Z,72.03
2023-05-08T20:29:55.274Z,72.00
2023-05-08T20:34:56.919Z,72.09
2023-05-08T20:39:58.560Z,72.70
2023-05-08T20:45:01.638Z,72.67
2023-05-08T20:50:04.482Z,73.40
2023-05-08T20:55:07.671Z,73.10
2023-05-08T21:00:11.650Z,73.55
2023-05-08T21:05:13.882Z,73.27
2023-05-08T21:10:16.093Z,73.27
2023-05-08T21:15:19.352Z,73.75
2023-05-08T21:20:21.426Z,73.94
2023-05-08T21:25:23.239Z,74.15
2023-05-08T21:30:26.203Z,74.15
2023-05-08T21:35:27.835Z,74.34
2023-05-08T21:40:29.477Z,74.34
2023-05-08T21:45:33.133Z,74.18
2023-05-08T21:50:34.767Z,74.77
2023-05-08T21:55:36.424Z,74.84
2023-05-08T22:00:39.737Z,75.18
2023-05-08T22:05:41.381Z,75.58
2023-05-08T22:10:43.072Z,75.67
2023-05-08T22:15:46.240Z,75.23
2023-05-08T22:20:47.857Z,75.47
2023-05-08T22:25:50.701Z,75.84
2023-05-08T22:30:55.672Z,75.35
2023-05-08T22:35:57.262Z,75.93
2023-05-08T22:40:59.170Z,75.88
2023-05-08T22:46:05.340Z,75.62
2023-05-08T22:51:08.167Z,75.71
2023-05-08T22:56:10.011Z,75.98
2023-05-08T23:01:13.074Z,75.88
2023-05-08T23:06:14.940Z,75.67
2023-05-08T23:11:16.558Z,76.06
2023-05-08T23:16:19.664Z,76.21
2023-05-08T23:21:21.310Z,76.34
2023-05-08T23:26:23.093Z,76.65
2023-05-08T23:31:26.360Z,76.68
2023-05-08T23:36:28.037Z,76.63
2023-05-08T23:41:29.657Z,76.56
2023-05-08T23:46:32.720Z,77.03
2023-05-08T23:51:34.380Z,76.73
2023-05-08T23:56:37.080Z,76.92
